createdAt,value
2022-11-10T00:02:20.028Z,11.93
2022-11-10T00:07:28.402Z,12.60
2022-11-10T00:12:32.989Z,12.19
2022-11-10T00:17:43.662Z,12.82
2022-11-10T00:22:47.094Z,12.60
2022-11-10T00:27:50.942Z,12.30
2022-11-10T00:33:01.264Z,12.48
2022-11-10T00:38:04.865Z,12.35
2022-11-10T00:43:08.909Z,12.06
2022-11-10T00:48:12.745Z,12.50
2022-11-10T00:53:16.550Z,12.76
2022-11-10T00:58:26.780Z,12.69
2022-11-10T01:03:33.202Z,12.72
2022-11-10T01:08:37.833Z,12.42
2022-11-10T01:13:43.040Z,11.88
2022-11-10T01:18:51.948Z,12.58
2022-11-10T01:23:55.901Z,11.95
2022-11-10T01:28:59.429Z,11.69
2022-11-10T01:34:02.875Z,12.52
2022-11-10T01:39:06.602Z,12.46
2022-11-10T01:44:17.341Z,12.58
2022-11-10T01:49:25.168Z,12.21
2022-11-10T01:54:33.394Z,12.59
2022-11-10T01:59:49.881Z,12.52
2022-11-10T02:04:53.810Z,12.43
2022-11-10T02:09:57.441Z,11.85
2022-11-10T02:15:01.008Z,12.24
2022-11-10T02:20:11.430Z,11.54
2022-11-10T02:25:20.297Z,11.85
2022-11-10T02:30:27.479Z,12.03
2022-11-10T02:35:31.513Z,11.39
2022-11-10T02:40:35.264Z,11.64
2022-11-10T02:45:47.685Z,11.93
2022-11-10T02:50:51.132Z,11.96
2022-11-10T02:55:54.831Z,12.16
2022-11-10T03:00:58.360Z,12.00
2022-11-10T03:06:02.372Z,11.64
2022-11-10T03:11:06.428Z,11.19
2022-11-10T03:16:19.912Z,11.57
2022-11-10T03:21:23.370Z,12.03
2022-11-10T03:26:27.268Z,12.11
2022-11-10T03:31:30.744Z,10.98
2022-11-10T03:36:34.191Z,11.43
2022-11-10T03:41:37.710Z,11.72
2022-11-10T03:46:43.528Z,11.22
2022-11-10T03:51:47.086Z,11.89
2022-11-10T03:56:50.629Z,11.89
2022-11-10T04:01:54.136Z,11.74
2022-11-10T04:07:16.405Z,11.35
2022-11-10T04:12:40.760Z,12.14
2022-11-10T04:17:50.578Z,11.71
2022-11-10T04:23:12.751Z,11.54
2022-11-10T04:28:16.308Z,12.01
2022-11-10T04:33:20.027Z,11.79
2022-11-10T04:38:34.064Z,11.73
2022-11-10T04:43:47.721Z,11.72
2022-11-10T04:48:51.704Z,11.96
2022-11-10T04:53:55.212Z,11.96
2022-11-10T04:58:58.768Z,11.76
2022-11-10T05:04:03.036Z,11.79
2022-11-10T05:09:06.485Z,11.81
2022-11-10T05:14:10.332Z,11.71
2022-11-10T05:19:13.744Z,10.99
2022-11-10T05:24:17.515Z,11.74
2022-11-10T05:29:21.005Z,11.54
2022-11-10T05:34:24.502Z,11.72
2022-11-10T05:39:27.967Z,11.82
2022-11-10T05:44:31.426Z,11.40
2022-11-10T05:49:34.801Z,11.50
2022-11-10T05:54:38.233Z,10.87
2022-11-10T05:59:41.745Z,11.58
2022-11-10T06:04:45.233Z,11.20
2022-11-10T06:09:49.542Z,11.74
2022-11-10T06:14:53.030Z,11.05
2022-11-10T06:19:56.547Z,11.63
2022-11-10T06:25:00.454Z,11.97
2022-11-10T06:30:04.897Z,11.88
2022-11-10T06:35:09.091Z,11.46
2022-11-10T06:40:14.921Z,11.99
2022-11-10T06:45:18.421Z,11.59
2022-11-10T06:50:22.118Z,11.08
2022-11-10T06:55:26.164Z,11.95
2022-11-10T07:00:30.549Z,12.03
2022-11-10T07:05:36.332Z,11.83
2022-11-10T07:10:42.841Z,11.47
2022-11-10T07:15:46.595Z,11.87
2022-11-10T07:20:50.365Z,11.83
2022-11-10T07:25:54.000Z,11.97
2022-11-10T07:30:57.642Z,11.67
2022-11-10T07:36:19.256Z,11.69
2022-11-10T07:41:22.868Z,11.53
2022-11-10T07:46:26.304Z,11.80
2022-11-10T07:51:31.873Z,11.77
2022-11-10T07:56:35.310Z,12.00
2022-11-10T08:01:38.803Z,11.31
2022-11-10T08:06:42.516Z,12.15
2022-11-10T08:11:46.062Z,11.90
2022-11-10T08:16:49.673Z,11.29
2022-11-10T08:21:53.107Z,12.21
2022-11-10T08:26:58.677Z,12.09
2022-11-10T08:32:02.300Z,12.20
2022-11-10T08:37:05.721Z,11.62
2022-11-10T08:42:09.413Z,11.83
2022-11-10T08:47:13.028Z,12.04
2022-11-10T08:52:16.435Z,12.48
2022-11-10T08:57:19.942Z,12.23
2022-11-10T09:02:23.797Z,11.74
2022-11-10T09:07:27.796Z,11.60
2022-11-10T09:12:31.482Z,12.50
2022-11-10T09:17:35.600Z,12.57
2022-11-10T09:22:39.813Z,12.56
2022-11-10T09:27:43.798Z,12.02
2022-11-10T09:32:47.657Z,12.01
2022-11-10T09:37:51.167Z,12.63
2022-11-10T09:42:57.417Z,12.29
2022-11-10T09:48:08.511Z,12.23
2022-11-10T09:53:18.510Z,12.55
2022-11-10T09:58:26.419Z,12.56
2022-11-10T10:03:32.660Z,12.59
2022-11-10T10:09:11.054Z,12.54
2022-11-10T10:14:29.376Z,12.52
2022-11-10T10:19:32.757Z,12.62
2022-11-10T10:24:40.087Z,11.79
2022-11-10T10:29:50.002Z,12.04
2022-11-10T10:34:53.399Z,11.50
2022-11-10T10:39:56.951Z,12.16
2022-11-10T10:45:26.753Z,11.68
2022-11-10T10:50:33.759Z,11.66
2022-11-10T10:56:15.129Z,11.89
2022-11-10T11:01:19.036Z,11.97
2022-11-10T11:06:28.564Z,11.93
2022-11-10T11:11:34.647Z,11.87
2022-11-10T11:16:57.339Z,11.72
2022-11-10T11:22:21.900Z,11.82
2022-11-10T11:27:34.870Z,11.76
2022-11-10T11:33:03.071Z,11.72
2022-11-10T11:38:16.782Z,11.54
2022-11-10T11:43:28.779Z,11.56
2022-11-10T11:49:13.624Z,11.73
2022-11-10T11:54:46.816Z,11.69
2022-11-10T12:00:06.473Z,11.73
2022-11-10T12:05:16.017Z,11.91
2022-11-10T12:10:43.250Z,11.78
2022-11-10T12:15:58.222Z,11.87
2022-11-10T12:21:05.244Z,11.91
2022-11-10T12:26:42.339Z,11.99
2022-11-10T12:31:48.772Z,11.65
2022-11-10T12:36:53.978Z,11.31
2022-11-10T12:42:04.868Z,12.02
2022-11-10T12:47:16.559Z,11.51
2022-11-10T12:52:50.465Z,11.86
2022-11-10T12:57:54.111Z,11.14
2022-11-10T13:02:59.799Z,11.56
2022-11-10T13:08:28.162Z,12.00
2022-11-10T13:13:42.321Z,11.82
2022-11-10T13:18:45.657Z,11.88
2022-11-10T13:23:49.499Z,11.93
2022-11-10T13:28:58.514Z,11.81
2022-11-10T13:34:20.027Z,11.99
2022-11-10T13:39:40.076Z,11.73
2022-11-10T13:44:44.437Z,11.83
2022-11-10T13:49:59.316Z,12.06
2022-11-10T13:55:32.458Z,12.09
2022-11-10T14:00:37.184Z,11.70
2022-11-10T14:05:42.727Z,12.01
2022-11-10T14:10:58.402Z,12.02
2022-11-10T14:16:17.870Z,11.75
2022-11-10T14:21:25.715Z,11.96
2022-11-10T14:26:32.957Z,12.00
2022-11-10T14:31:37.262Z,11.93
2022-11-10T14:36:40.691Z,11.96
2022-11-10T14:41:51.944Z,11.77
2022-11-10T14:46:55.968Z,11.80
2022-11-10T14:52:00.566Z,12.16
2022-11-10T14:57:06.475Z,11.95
2022-11-10T15:02:14.837Z,12.30
2022-11-10T15:07:19.631Z,12.09
2022-11-10T15:12:28.449Z,11.73
2022-11-10T15:17:47.686Z,12.13
2022-11-10T15:22:51.321Z,11.98
2022-11-10T15:28:01.741Z,11.83
2022-11-10T15:33:12.168Z,11.82
2022-11-10T15:38:20.517Z,11.92
2022-11-10T15:43:25.659Z,12.03
2022-11-10T15:48:42.013Z,11.52
2022-11-10T15:53:48.562Z,11.72
2022-11-10T15:59:02.069Z,11.33
2022-11-10T16:04:09.897Z,11.81
2022-11-10T16:09:14.369Z,12.10
2022-11-10T16:14:18.573Z,11.94
2022-11-10T16:19:22.185Z,11.82
2022-11-10T16:24:25.986Z,11.34
2022-11-10T16:29:29.500Z,11.53
2022-11-10T16:34:32.988Z,11.24
2022-11-10T16:39:36.570Z,11.49
2022-11-10T16:44:42.625Z,11.42
2022-11-10T16:49:47.199Z,11.60
2022-11-10T16:54:51.270Z,11.49
2022-11-10T16:59:54.739Z,11.06
2022-11-10T17:04:58.133Z,10.99
2022-11-10T17:10:02.858Z,11.36
2022-11-10T17:15:06.953Z,11.43
2022-11-10T17:20:18.549Z,11.09
2022-11-10T17:25:28.315Z,11.32
2022-11-10T17:30:31.812Z,11.14
2022-11-10T17:35:45.622Z,11.57
2022-11-10T17:40:49.233Z,11.27
2022-11-10T17:45:52.690Z,11.76
2022-11-10T17:50:56.116Z,11.29
2022-11-10T17:55:59.667Z,12.06
2022-11-10T18:01:03.234Z,11.68
2022-11-10T18:06:07.799Z,12.48
2022-11-10T18:11:13.010Z,12.56
2022-11-10T18:16:16.498Z,12.27
2022-11-10T18:21:20.004Z,12.12
2022-11-10T18:26:23.413Z,11.69
2022-11-10T18:31:37.987Z,11.73
2022-11-10T18:41:49.870Z,11.42
2022-11-10T18:46:53.359Z,11.59
2022-11-10T18:51:57.851Z,11.94
2022-11-10T18:57:01.580Z,11.81
2022-11-10T19:02:05.232Z,11.23
2022-11-10T19:07:08.862Z,11.57
2022-11-10T19:12:16.156Z,9.88
2022-11-10T19:17:20.641Z,10.11
2022-11-10T19:22:24.791Z,10.76
2022-11-10T19:27:29.608Z,10.97
2022-11-10T19:32:44.248Z,11.18
2022-11-10T19:37:53.157Z,10.81
2022-11-10T19:42:56.598Z,9.78
2022-11-10T19:48:00.535Z,10.97
2022-11-10T19:53:04.097Z,10.24
2022-11-10T19:58:17.543Z,10.25
2022-11-10T20:03:29.873Z,9.93
2022-11-10T20:08:33.655Z,10.25
2022-11-10T20:13:37.838Z,10.23
2022-11-10T20:18:42.410Z,10.68
2022-11-10T20:23:45.835Z,10.35
2022-11-10T20:28:49.239Z,10.88
2022-11-10T20:33:54.997Z,10.83
2022-11-10T20:39:01.252Z,10.22
2022-11-10T20:44:04.741Z,10.82
2022-11-10T20:49:08.176Z,10.97
2022-11-10T20:54:12.030Z,10.55
2022-11-10T20:59:15.450Z,10.63
2022-11-10T21:04:19.327Z,10.18
2022-11-10T21:09:22.843Z,10.14
2022-11-10T21:14:27.572Z,10.31
2022-11-10T21:19:37.285Z,10.00
2022-11-10T21:24:40.773Z,9.95
2022-11-10T21:29:44.719Z,10.00
2022-11-10T21:34:48.182Z,9.69
2022-11-10T21:39:51.590Z,9.64
2022-11-10T21:44:57.362Z,10.14
2022-11-10T21:50:00.828Z,9.08
2022-11-10T21:55:04.559Z,9.64
2022-11-10T22:00:11.813Z,9.49
2022-11-10T22:05:15.596Z,8.70
2022-11-10T22:10:38.891Z,9.54
2022-11-10T22:16:01.260Z,8.29
2022-11-10T22:21:05.921Z,8.74
2022-11-10T22:26:09.307Z,9.06
2022-11-10T22:31:13.722Z,9.11
2022-11-10T22:36:18.208Z,8.49
2022-11-10T22:41:40.130Z,9.00
2022-11-10T22:46:51.946Z,8.27
2022-11-10T22:51:56.469Z,8.76
2022-11-10T22:56:59.896Z,8.98
2022-11-10T23:02:03.883Z,8.92
2022-11-10T23:07:07.635Z,9.34
2022-11-10T23:12:11.174Z,9.63
2022-11-10T23:17:14.661Z,8.66
2022-11-10T23:22:18.266Z,9.68
2022-11-10T23:27:21.708Z,9.95
2022-11-10T23:32:25.142Z,9.58
2022-11-10T23:37:28.642Z,9.97
2022-11-10T23:42:33.108Z,9.45
2022-11-10T23:47:36.628Z,9.28
2022-11-10T23:52:40.290Z,9.64
2022-11-10T23:57:47.170Z,10.25
